sensor_id;sensor_type;location;lat;lon;timestamp;P1;durP1;ratioP1;P2;durP2;ratioP2
86327;SDS011;76984;52.332;10.562;2024-03-02T00:00:08;16.95;;;8.07;;
86327;SDS011;76984;52.332;10.562;2024-03-02T00:02:42;14.80;;;7.82;;
86327;SDS011;76984;52.332;10.562;2024-03-02T00:05:13;15.20;;;8.00;;
86327;SDS011;76984;52.332;10.562;2024-03-02T00:07:44;14.35;;;7.65;;
86327;SDS011;76984;52.332;10.562;2024-03-02T00:10:13;15.18;;;7.22;;
86327;SDS011;76984;52.332;10.562;2024-03-02T00:12:44;14.75;;;7.13;;
86327;SDS011;76984;52.332;10.562;2024-03-02T00:18:23;12.70;;;6.97;;
86327;SDS011;76984;52.332;10.562;2024-03-02T00:23:21;14.80;;;7.22;;
86327;SDS011;76984;52.332;10.562;2024-03-02T00:25:47;14.10;;;7.15;;
86327;SDS011;76984;52.332;10.562;2024-03-02T00:33:19;14.40;;;7.35;;
86327;SDS011;76984;52.332;10.562;2024-03-02T00:35:46;11.73;;;6.88;;
86327;SDS011;76984;52.332;10.562;2024-03-02T00:38:11;13.68;;;7.00;;
86327;SDS011;76984;52.332;10.562;2024-03-02T00:40:40;13.43;;;6.85;;
86327;SDS011;76984;52.332;10.562;2024-03-02T00:43:05;15.15;;;7.72;;
86327;SDS011;76984;52.332;10.562;2024-03-02T00:45:39;16.50;;;8.15;;
86327;SDS011;76984;52.332;10.562;2024-03-02T00:48:05;14.15;;;7.05;;
86327;SDS011;76984;52.332;10.562;2024-03-02T00:50:30;15.45;;;8.05;;
86327;SDS011;76984;52.332;10.562;2024-03-02T00:52:57;13.43;;;7.10;;
86327;SDS011;76984;52.332;10.562;2024-03-02T00:55:23;12.57;;;6.57;;
86327;SDS011;76984;52.332;10.562;2024-03-02T00:57:48;13.43;;;7.87;;
86327;SDS011;76984;52.332;10.562;2024-03-02T01:00:13;13.03;;;6.93;;
86327;SDS011;76984;52.332;10.562;2024-03-02T01:02:40;15.07;;;7.72;;
86327;SDS011;76984;52.332;10.562;2024-03-02T01:05:05;14.03;;;7.63;;
86327;SDS011;76984;52.332;10.562;2024-03-02T01:07:31;13.13;;;6.65;;
86327;SDS011;76984;52.332;10.562;2024-03-02T01:09:56;12.33;;;7.03;;
86327;SDS011;76984;52.332;10.562;2024-03-02T01:12:21;12.20;;;7.10;;
86327;SDS011;76984;52.332;10.562;2024-03-02T01:14:46;13.33;;;7.60;;
86327;SDS011;76984;52.332;10.562;2024-03-02T01:17:12;13.57;;;6.90;;
86327;SDS011;76984;52.332;10.562;2024-03-02T01:19:37;14.82;;;7.20;;
86327;SDS011;76984;52.332;10.562;2024-03-02T01:22:03;13.65;;;7.68;;
86327;SDS011;76984;52.332;10.562;2024-03-02T01:24:28;12.27;;;6.65;;
86327;SDS011;76984;52.332;10.562;2024-03-02T01:26:54;11.97;;;6.77;;
86327;SDS011;76984;52.332;10.562;2024-03-02T01:29:19;13.48;;;6.38;;
86327;SDS011;76984;52.332;10.562;2024-03-02T01:31:45;16.87;;;6.37;;
86327;SDS011;76984;52.332;10.562;2024-03-02T01:34:10;13.23;;;6.72;;
86327;SDS011;76984;52.332;10.562;2024-03-02T01:36:35;13.30;;;6.17;;
86327;SDS011;76984;52.332;10.562;2024-03-02T01:39:00;13.07;;;7.93;;
86327;SDS011;76984;52.332;10.562;2024-03-02T01:41:26;15.27;;;7.38;;
86327;SDS011;76984;52.332;10.562;2024-03-02T01:43:52;14.43;;;7.43;;
86327;SDS011;76984;52.332;10.562;2024-03-02T01:46:17;14.30;;;7.80;;
86327;SDS011;76984;52.332;10.562;2024-03-02T01:48:42;12.35;;;7.15;;
86327;SDS011;76984;52.332;10.562;2024-03-02T01:51:07;13.37;;;7.17;;
86327;SDS011;76984;52.332;10.562;2024-03-02T01:53:33;14.35;;;7.78;;
86327;SDS011;76984;52.332;10.562;2024-03-02T01:55:59;13.70;;;7.43;;
86327;SDS011;76984;52.332;10.562;2024-03-02T01:58:26;13.63;;;7.38;;
86327;SDS011;76984;52.332;10.562;2024-03-02T02:00:51;12.13;;;6.88;;
86327;SDS011;76984;52.332;10.562;2024-03-02T02:03:17;13.33;;;7.20;;
86327;SDS011;76984;52.332;10.562;2024-03-02T02:05:42;13.97;;;7.40;;
86327;SDS011;76984;52.332;10.562;2024-03-02T02:08:07;15.93;;;7.78;;
86327;SDS011;76984;52.332;10.562;2024-03-02T02:10:33;11.13;;;6.60;;
86327;SDS011;76984;52.332;10.562;2024-03-02T02:12:58;14.13;;;7.13;;
86327;SDS011;76984;52.332;10.562;2024-03-02T02:15:27;15.48;;;7.72;;
86327;SDS011;76984;52.332;10.562;2024-03-02T02:17:56;12.95;;;7.35;;
86327;SDS011;76984;52.332;10.562;2024-03-02T02:20:22;13.70;;;7.40;;
86327;SDS011;76984;52.332;10.562;2024-03-02T02:22:58;12.85;;;7.15;;
86327;SDS011;76984;52.332;10.562;2024-03-02T02:25:28;15.93;;;8.10;;
86327;SDS011;76984;52.332;10.562;2024-03-02T02:27:54;13.63;;;8.23;;
86327;SDS011;76984;52.332;10.562;2024-03-02T02:30:27;14.23;;;7.50;;
86327;SDS011;76984;52.332;10.562;2024-03-02T02:32:54;15.43;;;8.57;;
86327;SDS011;76984;52.332;10.562;2024-03-02T02:35:19;14.52;;;7.95;;
86327;SDS011;76984;52.332;10.562;2024-03-02T02:37:45;14.02;;;7.55;;
86327;SDS011;76984;52.332;10.562;2024-03-02T02:40:12;15.35;;;7.72;;
86327;SDS011;76984;52.332;10.562;2024-03-02T02:42:38;12.85;;;7.18;;
86327;SDS011;76984;52.332;10.562;2024-03-02T02:45:04;16.08;;;8.48;;
86327;SDS011;76984;52.332;10.562;2024-03-02T02:47:29;15.55;;;8.23;;
86327;SDS011;76984;52.332;10.562;2024-03-02T02:49:55;16.67;;;8.48;;
86327;SDS011;76984;52.332;10.562;2024-03-02T02:52:20;17.42;;;8.93;;
86327;SDS011;76984;52.332;10.562;2024-03-02T02:54:46;18.33;;;8.38;;
86327;SDS011;76984;52.332;10.562;2024-03-02T02:57:11;15.73;;;7.80;;
86327;SDS011;76984;52.332;10.562;2024-03-02T02:59:37;15.60;;;8.43;;
86327;SDS011;76984;52.332;10.562;2024-03-02T03:02:02;14.33;;;7.90;;
86327;SDS011;76984;52.332;10.562;2024-03-02T03:04:27;13.02;;;7.25;;
86327;SDS011;76984;52.332;10.562;2024-03-02T03:06:52;14.80;;;7.73;;
86327;SDS011;76984;52.332;10.562;2024-03-02T03:09:18;14.97;;;8.07;;
86327;SDS011;76984;52.332;10.562;2024-03-02T03:11:43;13.13;;;7.17;;
86327;SDS011;76984;52.332;10.562;2024-03-02T03:14:09;15.23;;;8.20;;
86327;SDS011;76984;52.332;10.562;2024-03-02T03:16:34;14.93;;;8.27;;
86327;SDS011;76984;52.332;10.562;2024-03-02T03:18:59;14.87;;;7.80;;
86327;SDS011;76984;52.332;10.562;2024-03-02T03:21:25;15.37;;;7.10;;
86327;SDS011;76984;52.332;10.562;2024-03-02T03:23:50;14.95;;;7.72;;
86327;SDS011;76984;52.332;10.562;2024-03-02T03:26:15;18.03;;;8.57;;
86327;SDS011;76984;52.332;10.562;2024-03-02T03:28:40;15.27;;;9.13;;
86327;SDS011;76984;52.332;10.562;2024-03-02T03:31:06;17.23;;;8.17;;
86327;SDS011;76984;52.332;10.562;2024-03-02T03:33:32;15.32;;;7.90;;
86327;SDS011;76984;52.332;10.562;2024-03-02T03:35:57;14.23;;;7.68;;
86327;SDS011;76984;52.332;10.562;2024-03-02T03:38:22;11.60;;;7.47;;
86327;SDS011;76984;52.332;10.562;2024-03-02T03:40:47;12.37;;;7.40;;
86327;SDS011;76984;52.332;10.562;2024-03-02T03:43:13;14.87;;;7.73;;
86327;SDS011;76984;52.332;10.562;2024-03-02T03:45:38;14.82;;;8.15;;
86327;SDS011;76984;52.332;10.562;2024-03-02T03:48:03;16.05;;;8.40;;
86327;SDS011;76984;52.332;10.562;2024-03-02T03:50:29;14.50;;;7.57;;
86327;SDS011;76984;52.332;10.562;2024-03-02T03:52:54;13.63;;;7.43;;
86327;SDS011;76984;52.332;10.562;2024-03-02T03:55:19;13.20;;;7.30;;
86327;SDS011;76984;52.332;10.562;2024-03-02T03:57:45;17.05;;;8.10;;
86327;SDS011;76984;52.332;10.562;2024-03-02T04:00:10;15.40;;;7.90;;
86327;SDS011;76984;52.332;10.562;2024-03-02T04:02:37;13.68;;;7.60;;
86327;SDS011;76984;52.332;10.562;2024-03-02T04:05:02;14.70;;;8.30;;
86327;SDS011;76984;52.332;10.562;2024-03-02T04:07:30;17.67;;;7.93;;
86327;SDS011;76984;52.332;10.562;2024-03-02T04:09:55;14.75;;;7.85;;
86327;SDS011;76984;52.332;10.562;2024-03-02T04:12:20;12.63;;;8.03;;
86327;SDS011;76984;52.332;10.562;2024-03-02T04:14:46;13.23;;;7.73;;
86327;SDS011;76984;52.332;10.562;2024-03-02T04:17:11;15.20;;;8.40;;
86327;SDS011;76984;52.332;10.562;2024-03-02T04:19:36;15.37;;;8.37;;
86327;SDS011;76984;52.332;10.562;2024-03-02T04:22:01;15.27;;;8.17;;
86327;SDS011;76984;52.332;10.562;2024-03-02T04:24:27;15.60;;;8.60;;
86327;SDS011;76984;52.332;10.562;2024-03-02T04:26:52;15.43;;;8.03;;
86327;SDS011;76984;52.332;10.562;2024-03-02T04:29:17;12.90;;;6.97;;
86327;SDS011;76984;52.332;10.562;2024-03-02T04:31:43;17.30;;;8.68;;
86327;SDS011;76984;52.332;10.562;2024-03-02T04:34:09;13.83;;;8.27;;
86327;SDS011;76984;52.332;10.562;2024-03-02T04:36:34;14.57;;;7.93;;
86327;SDS011;76984;52.332;10.562;2024-03-02T04:38:59;15.03;;;7.83;;
86327;SDS011;76984;52.332;10.562;2024-03-02T04:41:24;17.20;;;8.50;;
86327;SDS011;76984;52.332;10.562;2024-03-02T04:43:50;15.10;;;8.30;;
86327;SDS011;76984;52.332;10.562;2024-03-02T04:46:15;16.07;;;8.13;;
86327;SDS011;76984;52.332;10.562;2024-03-02T04:48:40;15.50;;;7.93;;
86327;SDS011;76984;52.332;10.562;2024-03-02T04:51:05;13.10;;;7.40;;
86327;SDS011;76984;52.332;10.562;2024-03-02T04:53:31;15.57;;;8.03;;
86327;SDS011;76984;52.332;10.562;2024-03-02T04:55:56;15.30;;;7.93;;
86327;SDS011;76984;52.332;10.562;2024-03-02T04:58:56;15.05;;;7.30;;
86327;SDS011;76984;52.332;10.562;2024-03-02T05:01:21;12.57;;;7.60;;
86327;SDS011;76984;52.332;10.562;2024-03-02T05:03:47;15.43;;;9.17;;
86327;SDS011;76984;52.332;10.562;2024-03-02T05:06:12;13.77;;;7.73;;
86327;SDS011;76984;52.332;10.562;2024-03-02T05:08:37;14.10;;;7.10;;
86327;SDS011;76984;52.332;10.562;2024-03-02T05:11:02;15.23;;;8.73;;
86327;SDS011;76984;52.332;10.562;2024-03-02T05:13:47;13.02;;;7.90;;
86327;SDS011;76984;52.332;10.562;2024-03-02T05:16:12;11.33;;;6.87;;
86327;SDS011;76984;52.332;10.562;2024-03-02T05:18:37;15.60;;;8.33;;
86327;SDS011;76984;52.332;10.562;2024-03-02T05:21:03;16.73;;;8.60;;
86327;SDS011;76984;52.332;10.562;2024-03-02T05:23:28;17.05;;;9.18;;
86327;SDS011;76984;52.332;10.562;2024-03-02T05:25:54;13.40;;;7.23;;
86327;SDS011;76984;52.332;10.562;2024-03-02T05:28:19;19.47;;;9.27;;
86327;SDS011;76984;52.332;10.562;2024-03-02T05:30:44;15.52;;;8.27;;
86327;SDS011;76984;52.332;10.562;2024-03-02T05:33:09;17.00;;;8.13;;
86327;SDS011;76984;52.332;10.562;2024-03-02T05:35:35;15.53;;;7.60;;
86327;SDS011;76984;52.332;10.562;2024-03-02T05:38:00;15.93;;;8.20;;
86327;SDS011;76984;52.332;10.562;2024-03-02T05:40:25;17.13;;;8.83;;
86327;SDS011;76984;52.332;10.562;2024-03-02T05:42:50;13.73;;;7.97;;
86327;SDS011;76984;52.332;10.562;2024-03-02T05:45:16;16.50;;;8.47;;
86327;SDS011;76984;52.332;10.562;2024-03-02T05:47:41;14.70;;;8.25;;
86327;SDS011;76984;52.332;10.562;2024-03-02T05:50:07;15.05;;;7.88;;
86327;SDS011;76984;52.332;10.562;2024-03-02T05:52:32;14.73;;;8.18;;
86327;SDS011;76984;52.332;10.562;2024-03-02T05:54:57;19.63;;;8.67;;
86327;SDS011;76984;52.332;10.562;2024-03-02T05:57:23;18.67;;;8.63;;
86327;SDS011;76984;52.332;10.562;2024-03-02T06:00:04;16.30;;;7.97;;
86327;SDS011;76984;52.332;10.562;2024-03-02T06:02:33;15.15;;;9.10;;
86327;SDS011;76984;52.332;10.562;2024-03-02T06:04:58;16.83;;;8.20;;
86327;SDS011;76984;52.332;10.562;2024-03-02T06:07:23;13.93;;;7.97;;
86327;SDS011;76984;52.332;10.562;2024-03-02T06:09:48;16.43;;;8.87;;
86327;SDS011;76984;52.332;10.562;2024-03-02T06:12:16;14.93;;;8.93;;
86327;SDS011;76984;52.332;10.562;2024-03-02T06:14:41;18.17;;;9.07;;
86327;SDS011;76984;52.332;10.562;2024-03-02T06:17:06;18.37;;;9.93;;
86327;SDS011;76984;52.332;10.562;2024-03-02T06:19:32;18.67;;;10.23;;
86327;SDS011;76984;52.332;10.562;2024-03-02T06:21:57;18.33;;;9.57;;
86327;SDS011;76984;52.332;10.562;2024-03-02T06:24:22;18.33;;;9.57;;
86327;SDS011;76984;52.332;10.562;2024-03-02T06:26:48;20.60;;;9.52;;
86327;SDS011;76984;52.332;10.562;2024-03-02T06:29:13;17.53;;;10.03;;
86327;SDS011;76984;52.332;10.562;2024-03-02T06:31:38;16.90;;;9.20;;
86327;SDS011;76984;52.332;10.562;2024-03-02T06:34:03;16.87;;;8.87;;
86327;SDS011;76984;52.332;10.562;2024-03-02T06:36:29;20.02;;;11.15;;
86327;SDS011;76984;52.332;10.562;2024-03-02T06:38:55;20.90;;;10.52;;
86327;SDS011;76984;52.332;10.562;2024-03-02T06:41:20;19.03;;;10.77;;
86327;SDS011;76984;52.332;10.562;2024-03-02T06:43:45;18.87;;;9.63;;
86327;SDS011;76984;52.332;10.562;2024-03-02T06:46:10;17.43;;;9.97;;
86327;SDS011;76984;52.332;10.562;2024-03-02T06:48:39;20.30;;;10.25;;
86327;SDS011;76984;52.332;10.562;2024-03-02T06:51:04;18.73;;;9.53;;
86327;SDS011;76984;52.332;10.562;2024-03-02T06:53:30;16.80;;;9.77;;
86327;SDS011;76984;52.332;10.562;2024-03-02T06:55:56;18.00;;;10.20;;
86327;SDS011;76984;52.332;10.562;2024-03-02T06:58:22;17.75;;;9.35;;
86327;SDS011;76984;52.332;10.562;2024-03-02T07:00:47;18.70;;;10.13;;
86327;SDS011;76984;52.332;10.562;2024-03-02T07:03:16;19.02;;;10.07;;
86327;SDS011;76984;52.332;10.562;2024-03-02T07:05:41;16.83;;;10.23;;
86327;SDS011;76984;52.332;10.562;2024-03-02T07:08:07;16.00;;;10.05;;
86327;SDS011;76984;52.332;10.562;2024-03-02T07:10:32;16.77;;;9.55;;
86327;SDS011;76984;52.332;10.562;2024-03-02T07:12:58;16.80;;;9.27;;
86327;SDS011;76984;52.332;10.562;2024-03-02T07:15:23;16.23;;;9.47;;
86327;SDS011;76984;52.332;10.562;2024-03-02T07:17:51;15.52;;;9.35;;
86327;SDS011;76984;52.332;10.562;2024-03-02T07:20:17;16.03;;;8.63;;
86327;SDS011;76984;52.332;10.562;2024-03-02T07:22:42;16.02;;;9.77;;
86327;SDS011;76984;52.332;10.562;2024-03-02T07:25:08;15.95;;;8.68;;
86327;SDS011;76984;52.332;10.562;2024-03-02T07:27:33;16.77;;;8.70;;
86327;SDS011;76984;52.332;10.562;2024-03-02T07:30:00;20.50;;;10.02;;
86327;SDS011;76984;52.332;10.562;2024-03-02T07:32:26;15.80;;;8.13;;
86327;SDS011;76984;52.332;10.562;2024-03-02T07:34:51;16.00;;;8.50;;
86327;SDS011;76984;52.332;10.562;2024-03-02T07:37:17;17.80;;;8.70;;
86327;SDS011;76984;52.332;10.562;2024-03-02T07:39:43;18.75;;;9.68;;
86327;SDS011;76984;52.332;10.562;2024-03-02T07:42:09;19.55;;;9.80;;
86327;SDS011;76984;52.332;10.562;2024-03-02T07:44:34;16.70;;;9.10;;
86327;SDS011;76984;52.332;10.562;2024-03-02T07:47:00;18.23;;;8.37;;
86327;SDS011;76984;52.332;10.562;2024-03-02T07:49:25;16.25;;;8.70;;
86327;SDS011;76984;52.332;10.562;2024-03-02T07:51:51;17.95;;;8.70;;
86327;SDS011;76984;52.332;10.562;2024-03-02T07:54:16;16.60;;;8.37;;
86327;SDS011;76984;52.332;10.562;2024-03-02T07:56:41;15.33;;;8.27;;
86327;SDS011;76984;52.332;10.562;2024-03-02T07:59:06;18.70;;;8.73;;
86327;SDS011;76984;52.332;10.562;2024-03-02T08:01:32;18.25;;;8.95;;
86327;SDS011;76984;52.332;10.562;2024-03-02T08:03:58;15.75;;;8.25;;
86327;SDS011;76984;52.332;10.562;2024-03-02T08:06:28;15.00;;;8.40;;
86327;SDS011;76984;52.332;10.562;2024-03-02T08:08:57;16.42;;;9.05;;
86327;SDS011;76984;52.332;10.562;2024-03-02T08:11:23;16.92;;;9.25;;
86327;SDS011;76984;52.332;10.562;2024-03-02T08:13:49;17.48;;;9.60;;
86327;SDS011;76984;52.332;10.562;2024-03-02T08:16:15;15.63;;;9.48;;
86327;SDS011;76984;52.332;10.562;2024-03-02T08:18:41;19.00;;;9.77;;
86327;SDS011;76984;52.332;10.562;2024-03-02T08:21:07;17.23;;;10.00;;
86327;SDS011;76984;52.332;10.562;2024-03-02T08:23:33;17.23;;;10.18;;
86327;SDS011;76984;52.332;10.562;2024-03-02T08:25:59;17.95;;;9.88;;
86327;SDS011;76984;52.332;10.562;2024-03-02T08:28:24;19.65;;;9.52;;
86327;SDS011;76984;52.332;10.562;2024-03-02T08:30:49;19.57;;;9.53;;
86327;SDS011;76984;52.332;10.562;2024-03-02T08:33:15;18.97;;;10.27;;
86327;SDS011;76984;52.332;10.562;2024-03-02T08:35:40;19.17;;;9.47;;
86327;SDS011;76984;52.332;10.562;2024-03-02T08:38:05;22.53;;;11.47;;
86327;SDS011;76984;52.332;10.562;2024-03-02T08:40:30;19.23;;;11.52;;
86327;SDS011;76984;52.332;10.562;2024-03-02T08:42:56;23.00;;;10.43;;
86327;SDS011;76984;52.332;10.562;2024-03-02T08:45:21;19.33;;;11.35;;
86327;SDS011;76984;52.332;10.562;2024-03-02T08:47:47;16.88;;;10.07;;
86327;SDS011;76984;52.332;10.562;2024-03-02T08:50:13;19.90;;;9.85;;
86327;SDS011;76984;52.332;10.562;2024-03-02T08:52:38;19.95;;;11.45;;
86327;SDS011;76984;52.332;10.562;2024-03-02T08:55:04;19.50;;;10.43;;
86327;SDS011;76984;52.332;10.562;2024-03-02T08:57:29;21.10;;;11.00;;
86327;SDS011;76984;52.332;10.562;2024-03-02T08:59:55;19.98;;;10.68;;
86327;SDS011;76984;52.332;10.562;2024-03-02T09:02:21;19.58;;;10.98;;
86327;SDS011;76984;52.332;10.562;2024-03-02T09:04:46;17.88;;;8.75;;
86327;SDS011;76984;52.332;10.562;2024-03-02T09:07:12;16.37;;;9.43;;
86327;SDS011;76984;52.332;10.562;2024-03-02T09:09:37;16.70;;;9.97;;
86327;SDS011;76984;52.332;10.562;2024-03-02T09:12:04;14.23;;;8.82;;
86327;SDS011;76984;52.332;10.562;2024-03-02T09:14:30;17.67;;;9.77;;
86327;SDS011;76984;52.332;10.562;2024-03-02T09:16:55;18.23;;;9.57;;
86327;SDS011;76984;52.332;10.562;2024-03-02T09:19:21;22.40;;;10.37;;
86327;SDS011;76984;52.332;10.562;2024-03-02T09:21:46;19.47;;;10.10;;
86327;SDS011;76984;52.332;10.562;2024-03-02T09:24:11;16.97;;;8.83;;
86327;SDS011;76984;52.332;10.562;2024-03-02T09:26:37;14.80;;;8.80;;
86327;SDS011;76984;52.332;10.562;2024-03-02T09:29:02;15.27;;;8.63;;
86327;SDS011;76984;52.332;10.562;2024-03-02T09:31:28;18.67;;;9.23;;
86327;SDS011;76984;52.332;10.562;2024-03-02T09:33:53;17.00;;;9.13;;
86327;SDS011;76984;52.332;10.562;2024-03-02T09:36:22;18.83;;;9.53;;
86327;SDS011;76984;52.332;10.562;2024-03-02T09:38:48;16.90;;;8.35;;
86327;SDS011;76984;52.332;10.562;2024-03-02T09:41:14;18.77;;;9.25;;
86327;SDS011;76984;52.332;10.562;2024-03-02T09:43:40;12.77;;;7.93;;
86327;SDS011;76984;52.332;10.562;2024-03-02T09:46:06;15.98;;;8.88;;
86327;SDS011;76984;52.332;10.562;2024-03-02T09:48:33;16.45;;;8.07;;
86327;SDS011;76984;52.332;10.562;2024-03-02T09:50:59;17.40;;;8.27;;
86327;SDS011;76984;52.332;10.562;2024-03-02T09:53:25;14.93;;;8.35;;
86327;SDS011;76984;52.332;10.562;2024-03-02T09:55:56;15.68;;;9.13;;
86327;SDS011;76984;52.332;10.562;2024-03-02T09:58:22;16.98;;;8.48;;
86327;SDS011;76984;52.332;10.562;2024-03-02T10:00:47;15.63;;;8.77;;
86327;SDS011;76984;52.332;10.562;2024-03-02T10:03:13;16.90;;;8.93;;
86327;SDS011;76984;52.332;10.562;2024-03-02T10:05:38;16.15;;;8.13;;
86327;SDS011;76984;52.332;10.562;2024-03-02T10:08:04;14.77;;;8.07;;
86327;SDS011;76984;52.332;10.562;2024-03-02T10:10:39;13.73;;;7.75;;
86327;SDS011;76984;52.332;10.562;2024-03-02T10:13:09;18.83;;;8.48;;
86327;SDS011;76984;52.332;10.562;2024-03-02T10:15:36;18.65;;;9.13;;
86327;SDS011;76984;52.332;10.562;2024-03-02T10:20:28;15.30;;;8.57;;
86327;SDS011;76984;52.332;10.562;2024-03-02T10:22:54;14.52;;;8.02;;
86327;SDS011;76984;52.332;10.562;2024-03-02T10:25:32;13.40;;;7.93;;
86327;SDS011;76984;52.332;10.562;2024-03-02T10:27:58;17.13;;;8.45;;
86327;SDS011;76984;52.332;10.562;2024-03-02T10:30:24;13.85;;;8.25;;
86327;SDS011;76984;52.332;10.562;2024-03-02T10:32:50;14.93;;;7.60;;
86327;SDS011;76984;52.332;10.562;2024-03-02T10:37:42;14.88;;;8.20;;
86327;SDS011;76984;52.332;10.562;2024-03-02T10:40:10;13.70;;;7.07;;
86327;SDS011;76984;52.332;10.562;2024-03-02T10:42:37;16.90;;;7.55;;
86327;SDS011;76984;52.332;10.562;2024-03-02T10:45:03;14.38;;;8.30;;
86327;SDS011;76984;52.332;10.562;2024-03-02T10:47:31;16.70;;;8.02;;
86327;SDS011;76984;52.332;10.562;2024-03-02T10:49:59;13.20;;;7.20;;
86327;SDS011;76984;52.332;10.562;2024-03-02T10:52:26;12.27;;;6.72;;
86327;SDS011;76984;52.332;10.562;2024-03-02T10:54:51;10.10;;;5.30;;
86327;SDS011;76984;52.332;10.562;2024-03-02T10:57:17;10.98;;;5.65;;
86327;SDS011;76984;52.332;10.562;2024-03-02T10:59:56;7.50;;;4.80;;
86327;SDS011;76984;52.332;10.562;2024-03-02T11:02:26;12.15;;;5.20;;
86327;SDS011;76984;52.332;10.562;2024-03-02T11:04:54;9.10;;;5.28;;
86327;SDS011;76984;52.332;10.562;2024-03-02T11:07:20;10.23;;;6.18;;
86327;SDS011;76984;52.332;10.562;2024-03-02T11:09:57;8.80;;;4.80;;
86327;SDS011;76984;52.332;10.562;2024-03-02T11:12:28;8.20;;;5.05;;
86327;SDS011;76984;52.332;10.562;2024-03-02T11:14:56;9.63;;;5.30;;
86327;SDS011;76984;52.332;10.562;2024-03-02T11:17:23;7.55;;;4.53;;
86327;SDS011;76984;52.332;10.562;2024-03-02T11:19:49;7.97;;;4.05;;
86327;SDS011;76984;52.332;10.562;2024-03-02T11:22:15;6.93;;;4.50;;
86327;SDS011;76984;52.332;10.562;2024-03-02T11:24:48;7.72;;;4.68;;
86327;SDS011;76984;52.332;10.562;2024-03-02T11:27:14;8.32;;;5.00;;
86327;SDS011;76984;52.332;10.562;2024-03-02T11:32:13;9.18;;;3.90;;
86327;SDS011;76984;52.332;10.562;2024-03-02T11:34:51;7.07;;;4.32;;
86327;SDS011;76984;52.332;10.562;2024-03-02T11:37:17;7.45;;;4.50;;
86327;SDS011;76984;52.332;10.562;2024-03-02T11:39:48;8.15;;;4.90;;
86327;SDS011;76984;52.332;10.562;2024-03-02T11:42:15;8.38;;;4.65;;
86327;SDS011;76984;52.332;10.562;2024-03-02T11:44:42;8.32;;;4.53;;
86327;SDS011;76984;52.332;10.562;2024-03-02T11:47:10;8.07;;;4.80;;
86327;SDS011;76984;52.332;10.562;2024-03-02T11:49:45;7.68;;;4.65;;
86327;SDS011;76984;52.332;10.562;2024-03-02T11:52:16;6.95;;;4.18;;
86327;SDS011;76984;52.332;10.562;2024-03-02T11:54:43;5.47;;;3.65;;
86327;SDS011;76984;52.332;10.562;2024-03-02T11:57:14;7.45;;;4.38;;
86327;SDS011;76984;52.332;10.562;2024-03-02T11:59:41;8.00;;;5.40;;
86327;SDS011;76984;52.332;10.562;2024-03-02T12:02:12;9.43;;;4.90;;
86327;SDS011;76984;52.332;10.562;2024-03-02T12:04:40;9.20;;;5.18;;
86327;SDS011;76984;52.332;10.562;2024-03-02T12:07:05;8.20;;;5.07;;
86327;SDS011;76984;52.332;10.562;2024-03-02T12:09:31;9.80;;;4.88;;
86327;SDS011;76984;52.332;10.562;2024-03-02T12:12:05;9.53;;;5.20;;
86327;SDS011;76984;52.332;10.562;2024-03-02T12:14:31;8.40;;;4.55;;
86327;SDS011;76984;52.332;10.562;2024-03-02T12:16:57;8.45;;;5.28;;
86327;SDS011;76984;52.332;10.562;2024-03-02T12:19:24;11.25;;;5.40;;
86327;SDS011;76984;52.332;10.562;2024-03-02T12:21:50;8.65;;;5.18;;
86327;SDS011;76984;52.332;10.562;2024-03-02T12:24:16;9.38;;;4.30;;
86327;SDS011;76984;52.332;10.562;2024-03-02T12:26:41;8.93;;;4.55;;
86327;SDS011;76984;52.332;10.562;2024-03-02T12:29:07;8.18;;;4.55;;
86327;SDS011;76984;52.332;10.562;2024-03-02T12:31:32;8.53;;;4.87;;
86327;SDS011;76984;52.332;10.562;2024-03-02T12:33:58;10.10;;;5.72;;
86327;SDS011;76984;52.332;10.562;2024-03-02T12:36:23;8.55;;;5.20;;
86327;SDS011;76984;52.332;10.562;2024-03-02T12:38:52;7.70;;;4.35;;
86327;SDS011;76984;52.332;10.562;2024-03-02T12:41:18;9.10;;;5.20;;
86327;SDS011;76984;52.332;10.562;2024-03-02T12:43:43;7.83;;;5.07;;
86327;SDS011;76984;52.332;10.562;2024-03-02T12:46:08;9.77;;;5.05;;
86327;SDS011;76984;52.332;10.562;2024-03-02T12:48:34;8.18;;;4.53;;
86327;SDS011;76984;52.332;10.562;2024-03-02T12:51:00;8.52;;;5.07;;
86327;SDS011;76984;52.332;10.562;2024-03-02T12:53:26;10.98;;;4.57;;
86327;SDS011;76984;52.332;10.562;2024-03-02T12:55:52;10.52;;;4.55;;
86327;SDS011;76984;52.332;10.562;2024-03-02T12:58:21;7.18;;;4.38;;
86327;SDS011;76984;52.332;10.562;2024-03-02T13:00:47;7.07;;;4.40;;
86327;SDS011;76984;52.332;10.562;2024-03-02T13:03:12;7.45;;;4.38;;
86327;SDS011;76984;52.332;10.562;2024-03-02T13:05:38;7.18;;;3.85;;
86327;SDS011;76984;52.332;10.562;2024-03-02T13:08:04;6.63;;;3.92;;
86327;SDS011;76984;52.332;10.562;2024-03-02T13:10:32;5.72;;;3.78;;
86327;SDS011;76984;52.332;10.562;2024-03-02T13:12:57;7.35;;;4.28;;
86327;SDS011;76984;52.332;10.562;2024-03-02T13:15:23;9.05;;;3.90;;
86327;SDS011;76984;52.332;10.562;2024-03-02T13:17:51;5.90;;;3.58;;
86327;SDS011;76984;52.332;10.562;2024-03-02T13:20:17;8.17;;;4.20;;
86327;SDS011;76984;52.332;10.562;2024-03-02T13:22:44;5.60;;;4.00;;
86327;SDS011;76984;52.332;10.562;2024-03-02T13:25:09;7.30;;;4.07;;
86327;SDS011;76984;52.332;10.562;2024-03-02T13:27:35;7.13;;;3.85;;
86327;SDS011;76984;52.332;10.562;2024-03-02T13:30:02;5.97;;;3.72;;
86327;SDS011;76984;52.332;10.562;2024-03-02T13:32:28;7.47;;;3.88;;
86327;SDS011;76984;52.332;10.562;2024-03-02T13:34:54;6.90;;;4.68;;
86327;SDS011;76984;52.332;10.562;2024-03-02T13:37:20;6.80;;;3.73;;
86327;SDS011;76984;52.332;10.562;2024-03-02T13:39:45;5.72;;;3.83;;
86327;SDS011;76984;52.332;10.562;2024-03-02T13:42:11;6.00;;;3.37;;
86327;SDS011;76984;52.332;10.562;2024-03-02T13:44:38;6.30;;;3.20;;
86327;SDS011;76984;52.332;10.562;2024-03-02T13:47:04;6.80;;;3.10;;
86327;SDS011;76984;52.332;10.562;2024-03-02T13:49:30;6.57;;;3.80;;
86327;SDS011;76984;52.332;10.562;2024-03-02T13:52:02;6.88;;;4.13;;
86327;SDS011;76984;52.332;10.562;2024-03-02T13:54:29;7.55;;;3.72;;
86327;SDS011;76984;52.332;10.562;2024-03-02T13:56:57;6.40;;;3.50;;
86327;SDS011;76984;52.332;10.562;2024-03-02T13:59:23;5.32;;;3.00;;
86327;SDS011;76984;52.332;10.562;2024-03-02T14:01:49;5.93;;;3.20;;
86327;SDS011;76984;52.332;10.562;2024-03-02T14:04:15;6.75;;;3.60;;
86327;SDS011;76984;52.332;10.562;2024-03-02T14:06:40;8.48;;;3.40;;
86327;SDS011;76984;52.332;10.562;2024-03-02T14:09:08;6.80;;;3.40;;
86327;SDS011;76984;52.332;10.562;2024-03-02T14:11:33;5.70;;;3.20;;
86327;SDS011;76984;52.332;10.562;2024-03-02T14:13:59;4.80;;;3.23;;
86327;SDS011;76984;52.332;10.562;2024-03-02T14:16:24;6.23;;;4.27;;
86327;SDS011;76984;52.332;10.562;2024-03-02T14:18:49;5.50;;;3.30;;
86327;SDS011;76984;52.332;10.562;2024-03-02T14:21:14;5.37;;;3.50;;
86327;SDS011;76984;52.332;10.562;2024-03-02T14:23:40;6.47;;;3.50;;
86327;SDS011;76984;52.332;10.562;2024-03-02T14:26:05;5.30;;;3.20;;
86327;SDS011;76984;52.332;10.562;2024-03-02T14:28:31;7.53;;;3.85;;
86327;SDS011;76984;52.332;10.562;2024-03-02T14:30:56;6.40;;;3.42;;
86327;SDS011;76984;52.332;10.562;2024-03-02T14:33:21;5.10;;;3.37;;
86327;SDS011;76984;52.332;10.562;2024-03-02T14:35:46;5.53;;;3.03;;